sensor_id;sensor_type;location;lat;lon;timestamp;P1;durP1;ratioP1;P2;durP2;ratioP2
13425;SDS011;6785;57.918;12.530;2023-03-01T00:02:18;3.90;;;2.17;;
13425;SDS011;6785;57.918;12.530;2023-03-01T00:04:46;3.50;;;2.20;;
13425;SDS011;6785;57.918;12.530;2023-03-01T00:07:13;3.17;;;2.17;;
13425;SDS011;6785;57.918;12.530;2023-03-01T00:09:40;2.57;;;1.83;;
13425;SDS011;6785;57.918;12.530;2023-03-01T00:12:07;3.13;;;2.03;;
13425;SDS011;6785;57.918;12.530;2023-03-01T00:14:34;2.53;;;2.03;;
13425;SDS011;6785;57.918;12.530;2023-03-01T00:17:01;3.50;;;2.00;;
13425;SDS011;6785;57.918;12.530;2023-03-01T00:19:28;2.87;;;2.30;;
13425;SDS011;6785;57.918;12.530;2023-03-01T00:21:56;3.30;;;2.10;;
13425;SDS011;6785;57.918;12.530;2023-03-01T00:24:23;2.57;;;1.83;;
13425;SDS011;6785;57.918;12.530;2023-03-01T00:26:52;7.37;;;2.87;;
13425;SDS011;6785;57.918;12.530;2023-03-01T00:29:20;4.53;;;2.50;;
13425;SDS011;6785;57.918;12.530;2023-03-01T00:31:47;2.60;;;2.00;;
13425;SDS011;6785;57.918;12.530;2023-03-01T00:34:14;2.40;;;2.20;;
13425;SDS011;6785;57.918;12.530;2023-03-01T00:36:41;4.27;;;2.77;;
13425;SDS011;6785;57.918;12.530;2023-03-01T00:39:10;2.60;;;2.27;;
13425;SDS011;6785;57.918;12.530;2023-03-01T00:41:38;4.57;;;2.70;;
13425;SDS011;6785;57.918;12.530;2023-03-01T00:44:05;5.90;;;2.83;;
13425;SDS011;6785;57.918;12.530;2023-03-01T00:46:31;3.20;;;2.40;;
13425;SDS011;6785;57.918;12.530;2023-03-01T00:48:58;4.53;;;2.90;;
13425;SDS011;6785;57.918;12.530;2023-03-01T00:51:27;4.57;;;2.90;;
13425;SDS011;6785;57.918;12.530;2023-03-01T00:53:55;6.10;;;3.20;;
13425;SDS011;6785;57.918;12.530;2023-03-01T00:56:25;3.17;;;2.80;;
13425;SDS011;6785;57.918;12.530;2023-03-01T00:58:52;6.17;;;3.10;;
13425;SDS011;6785;57.918;12.530;2023-03-01T01:01:20;4.70;;;2.77;;
13425;SDS011;6785;57.918;12.530;2023-03-01T01:03:49;3.97;;;2.47;;
13425;SDS011;6785;57.918;12.530;2023-03-01T01:06:18;4.17;;;2.20;;
13425;SDS011;6785;57.918;12.530;2023-03-01T01:08:47;3.17;;;2.23;;
13425;SDS011;6785;57.918;12.530;2023-03-01T01:11:14;2.80;;;2.30;;
13425;SDS011;6785;57.918;12.530;2023-03-01T01:13:43;4.17;;;2.40;;
13425;SDS011;6785;57.918;12.530;2023-03-01T01:16:11;2.27;;;2.00;;
13425;SDS011;6785;57.918;12.530;2023-03-01T01:18:38;2.73;;;1.90;;
13425;SDS011;6785;57.918;12.530;2023-03-01T01:21:06;3.53;;;2.10;;
13425;SDS011;6785;57.918;12.530;2023-03-01T01:23:35;3.07;;;2.03;;
13425;SDS011;6785;57.918;12.530;2023-03-01T01:26:03;3.23;;;1.90;;
13425;SDS011;6785;57.918;12.530;2023-03-01T01:28:31;4.13;;;1.90;;
13425;SDS011;6785;57.918;12.530;2023-03-01T01:30:59;3.53;;;1.90;;
13425;SDS011;6785;57.918;12.530;2023-03-01T01:33:26;2.70;;;1.80;;
13425;SDS011;6785;57.918;12.530;2023-03-01T01:35:53;2.00;;;1.67;;
13425;SDS011;6785;57.918;12.530;2023-03-01T01:38:20;1.97;;;1.80;;
13425;SDS011;6785;57.918;12.530;2023-03-01T01:40:47;3.70;;;2.20;;
13425;SDS011;6785;57.918;12.530;2023-03-01T01:43:16;4.07;;;2.10;;
13425;SDS011;6785;57.918;12.530;2023-03-01T01:45:48;3.23;;;2.10;;
13425;SDS011;6785;57.918;12.530;2023-03-01T01:48:18;3.87;;;2.07;;
13425;SDS011;6785;57.918;12.530;2023-03-01T01:50:47;6.33;;;1.90;;
13425;SDS011;6785;57.918;12.530;2023-03-01T01:53:19;3.63;;;1.77;;
13425;SDS011;6785;57.918;12.530;2023-03-01T01:55:48;3.10;;;1.77;;
13425;SDS011;6785;57.918;12.530;2023-03-01T01:58:19;3.30;;;1.77;;
13425;SDS011;6785;57.918;12.530;2023-03-01T02:00:47;2.93;;;1.83;;
13425;SDS011;6785;57.918;12.530;2023-03-01T02:03:15;2.10;;;1.80;;
13425;SDS011;6785;57.918;12.530;2023-03-01T02:05:50;3.97;;;2.33;;
13425;SDS011;6785;57.918;12.530;2023-03-01T02:08:20;3.00;;;2.13;;
13425;SDS011;6785;57.918;12.530;2023-03-01T02:10:49;2.90;;;1.87;;
13425;SDS011;6785;57.918;12.530;2023-03-01T02:13:17;2.70;;;1.90;;
13425;SDS011;6785;57.918;12.530;2023-03-01T02:15:44;5.17;;;2.00;;
13425;SDS011;6785;57.918;12.530;2023-03-01T02:18:12;3.30;;;2.03;;
13425;SDS011;6785;57.918;12.530;2023-03-01T02:20:48;2.13;;;1.60;;
13425;SDS011;6785;57.918;12.530;2023-03-01T02:23:24;2.50;;;2.10;;
13425;SDS011;6785;57.918;12.530;2023-03-01T02:25:54;3.67;;;2.20;;
13425;SDS011;6785;57.918;12.530;2023-03-01T02:28:27;2.80;;;2.10;;
13425;SDS011;6785;57.918;12.530;2023-03-01T02:30:56;2.83;;;1.93;;
13425;SDS011;6785;57.918;12.530;2023-03-01T02:33:41;3.37;;;1.97;;
13425;SDS011;6785;57.918;12.530;2023-03-01T02:36:10;4.07;;;2.10;;
13425;SDS011;6785;57.918;12.530;2023-03-01T02:38:40;3.07;;;2.40;;
13425;SDS011;6785;57.918;12.530;2023-03-01T02:41:07;4.20;;;2.57;;
13425;SDS011;6785;57.918;12.530;2023-03-01T02:43:38;3.27;;;2.33;;
13425;SDS011;6785;57.918;12.530;2023-03-01T02:46:06;5.13;;;2.33;;
13425;SDS011;6785;57.918;12.530;2023-03-01T02:48:40;2.40;;;2.07;;
13425;SDS011;6785;57.918;12.530;2023-03-01T02:51:10;3.60;;;2.60;;
13425;SDS011;6785;57.918;12.530;2023-03-01T02:53:58;7.30;;;2.40;;
13425;SDS011;6785;57.918;12.530;2023-03-01T02:56:32;3.23;;;2.43;;
13425;SDS011;6785;57.918;12.530;2023-03-01T02:59:01;4.03;;;2.50;;
13425;SDS011;6785;57.918;12.530;2023-03-01T03:01:28;5.43;;;2.90;;
13425;SDS011;6785;57.918;12.530;2023-03-01T03:04:01;5.27;;;2.77;;
13425;SDS011;6785;57.918;12.530;2023-03-01T03:06:29;3.97;;;2.40;;
13425;SDS011;6785;57.918;12.530;2023-03-01T03:08:55;12.63;;;3.33;;
13425;SDS011;6785;57.918;12.530;2023-03-01T03:11:22;3.27;;;2.30;;
13425;SDS011;6785;57.918;12.530;2023-03-01T03:13:49;2.87;;;2.40;;
13425;SDS011;6785;57.918;12.530;2023-03-01T03:16:18;5.77;;;2.60;;
13425;SDS011;6785;57.918;12.530;2023-03-01T03:18:45;2.40;;;2.00;;
13425;SDS011;6785;57.918;12.530;2023-03-01T03:21:12;4.20;;;2.23;;
13425;SDS011;6785;57.918;12.530;2023-03-01T03:23:39;4.10;;;2.20;;
13425;SDS011;6785;57.918;12.530;2023-03-01T03:26:06;4.43;;;2.37;;
13425;SDS011;6785;57.918;12.530;2023-03-01T03:28:33;2.70;;;2.20;;
13425;SDS011;6785;57.918;12.530;2023-03-01T03:31:00;5.60;;;2.20;;
13425;SDS011;6785;57.918;12.530;2023-03-01T03:33:30;3.53;;;2.73;;
13425;SDS011;6785;57.918;12.530;2023-03-01T03:35:57;3.73;;;2.23;;
13425;SDS011;6785;57.918;12.530;2023-03-01T03:38:24;5.67;;;2.70;;
13425;SDS011;6785;57.918;12.530;2023-03-01T03:40:51;4.50;;;2.67;;
13425;SDS011;6785;57.918;12.530;2023-03-01T03:43:27;4.23;;;3.03;;
13425;SDS011;6785;57.918;12.530;2023-03-01T03:45:54;3.83;;;2.77;;
13425;SDS011;6785;57.918;12.530;2023-03-01T03:48:22;3.43;;;2.20;;
13425;SDS011;6785;57.918;12.530;2023-03-01T03:50:51;2.63;;;2.13;;
13425;SDS011;6785;57.918;12.530;2023-03-01T03:53:20;2.97;;;1.83;;
13425;SDS011;6785;57.918;12.530;2023-03-01T03:55:47;3.10;;;2.07;;
13425;SDS011;6785;57.918;12.530;2023-03-01T03:58:16;3.17;;;2.20;;
13425;SDS011;6785;57.918;12.530;2023-03-01T04:00:44;2.23;;;1.80;;
13425;SDS011;6785;57.918;12.530;2023-03-01T04:03:13;4.73;;;2.13;;
13425;SDS011;6785;57.918;12.530;2023-03-01T04:05:41;3.03;;;1.80;;
13425;SDS011;6785;57.918;12.530;2023-03-01T04:08:10;2.73;;;1.97;;
13425;SDS011;6785;57.918;12.530;2023-03-01T04:10:38;2.60;;;1.77;;
13425;SDS011;6785;57.918;12.530;2023-03-01T04:13:06;2.27;;;2.07;;
13425;SDS011;6785;57.918;12.530;2023-03-01T04:15:35;5.23;;;2.20;;
13425;SDS011;6785;57.918;12.530;2023-03-01T04:18:02;3.97;;;1.73;;
13425;SDS011;6785;57.918;12.530;2023-03-01T04:20:30;2.87;;;2.20;;
13425;SDS011;6785;57.918;12.530;2023-03-01T04:23:00;2.20;;;1.97;;
13425;SDS011;6785;57.918;12.530;2023-03-01T04:25:37;2.93;;;1.60;;
13425;SDS011;6785;57.918;12.530;2023-03-01T04:28:04;1.90;;;1.70;;
13425;SDS011;6785;57.918;12.530;2023-03-01T04:30:31;3.40;;;1.83;;
13425;SDS011;6785;57.918;12.530;2023-03-01T04:33:00;2.07;;;1.80;;
13425;SDS011;6785;57.918;12.530;2023-03-01T04:35:28;2.87;;;1.90;;
13425;SDS011;6785;57.918;12.530;2023-03-01T04:37:55;1.73;;;1.60;;
13425;SDS011;6785;57.918;12.530;2023-03-01T04:40:23;4.80;;;1.90;;
13425;SDS011;6785;57.918;12.530;2023-03-01T04:42:51;3.80;;;1.83;;
13425;SDS011;6785;57.918;12.530;2023-03-01T04:45:18;4.30;;;1.90;;
13425;SDS011;6785;57.918;12.530;2023-03-01T04:47:45;2.10;;;1.63;;
13425;SDS011;6785;57.918;12.530;2023-03-01T04:50:14;2.50;;;1.60;;
13425;SDS011;6785;57.918;12.530;2023-03-01T04:52:42;2.50;;;1.80;;
13425;SDS011;6785;57.918;12.530;2023-03-01T04:55:09;2.57;;;1.63;;
13425;SDS011;6785;57.918;12.530;2023-03-01T04:57:36;6.77;;;1.67;;
13425;SDS011;6785;57.918;12.530;2023-03-01T05:00:05;1.77;;;1.57;;
13425;SDS011;6785;57.918;12.530;2023-03-01T05:02:45;2.03;;;1.83;;
13425;SDS011;6785;57.918;12.530;2023-03-01T05:05:18;2.40;;;1.53;;
13425;SDS011;6785;57.918;12.530;2023-03-01T05:07:46;4.07;;;1.70;;
13425;SDS011;6785;57.918;12.530;2023-03-01T05:10:13;2.30;;;1.50;;
13425;SDS011;6785;57.918;12.530;2023-03-01T05:12:40;1.83;;;1.50;;
13425;SDS011;6785;57.918;12.530;2023-03-01T05:15:08;1.97;;;1.37;;
13425;SDS011;6785;57.918;12.530;2023-03-01T05:17:35;1.60;;;1.50;;
13425;SDS011;6785;57.918;12.530;2023-03-01T05:20:02;1.93;;;1.73;;
13425;SDS011;6785;57.918;12.530;2023-03-01T05:22:33;3.77;;;1.50;;
13425;SDS011;6785;57.918;12.530;2023-03-01T05:24:59;2.40;;;1.60;;
13425;SDS011;6785;57.918;12.530;2023-03-01T05:27:26;4.47;;;2.60;;
13425;SDS011;6785;57.918;12.530;2023-03-01T05:29:54;6.97;;;4.37;;
13425;SDS011;6785;57.918;12.530;2023-03-01T05:32:22;12.70;;;4.40;;
13425;SDS011;6785;57.918;12.530;2023-03-01T05:34:49;6.03;;;3.50;;
13425;SDS011;6785;57.918;12.530;2023-03-01T05:37:17;4.07;;;2.63;;
13425;SDS011;6785;57.918;12.530;2023-03-01T05:39:44;4.33;;;2.40;;
13425;SDS011;6785;57.918;12.530;2023-03-01T05:42:11;5.00;;;2.30;;
13425;SDS011;6785;57.918;12.530;2023-03-01T05:44:38;3.50;;;2.20;;
13425;SDS011;6785;57.918;12.530;2023-03-01T05:47:05;4.73;;;2.80;;
13425;SDS011;6785;57.918;12.530;2023-03-01T05:49:33;2.87;;;2.30;;
13425;SDS011;6785;57.918;12.530;2023-03-01T05:52:00;4.27;;;2.70;;
13425;SDS011;6785;57.918;12.530;2023-03-01T05:54:26;4.13;;;2.67;;
13425;SDS011;6785;57.918;12.530;2023-03-01T05:56:53;8.20;;;4.03;;
13425;SDS011;6785;57.918;12.530;2023-03-01T05:59:21;5.57;;;3.77;;
13425;SDS011;6785;57.918;12.530;2023-03-01T06:01:48;5.90;;;3.37;;
13425;SDS011;6785;57.918;12.530;2023-03-01T06:04:15;6.90;;;3.43;;
13425;SDS011;6785;57.918;12.530;2023-03-01T06:06:43;6.70;;;3.37;;
13425;SDS011;6785;57.918;12.530;2023-03-01T06:09:09;7.47;;;3.17;;
13425;SDS011;6785;57.918;12.530;2023-03-01T06:11:36;10.13;;;4.63;;
13425;SDS011;6785;57.918;12.530;2023-03-01T06:14:03;5.97;;;2.73;;
13425;SDS011;6785;57.918;12.530;2023-03-01T06:16:31;6.33;;;3.10;;
13425;SDS011;6785;57.918;12.530;2023-03-01T06:18:58;3.57;;;2.40;;
13425;SDS011;6785;57.918;12.530;2023-03-01T06:21:25;3.97;;;2.27;;
13425;SDS011;6785;57.918;12.530;2023-03-01T06:23:53;3.40;;;2.30;;
13425;SDS011;6785;57.918;12.530;2023-03-01T06:26:19;2.53;;;1.90;;
13425;SDS011;6785;57.918;12.530;2023-03-01T06:28:46;2.07;;;1.80;;
13425;SDS011;6785;57.918;12.530;2023-03-01T06:31:13;3.30;;;2.10;;
13425;SDS011;6785;57.918;12.530;2023-03-01T06:33:39;4.23;;;1.97;;
13425;SDS011;6785;57.918;12.530;2023-03-01T06:36:07;3.27;;;1.70;;
13425;SDS011;6785;57.918;12.530;2023-03-01T06:38:35;3.13;;;2.13;;
13425;SDS011;6785;57.918;12.530;2023-03-01T06:41:03;2.47;;;1.93;;
13425;SDS011;6785;57.918;12.530;2023-03-01T06:43:30;2.33;;;1.87;;
13425;SDS011;6785;57.918;12.530;2023-03-01T06:45:56;2.33;;;1.93;;
13425;SDS011;6785;57.918;12.530;2023-03-01T06:48:23;3.27;;;2.23;;
13425;SDS011;6785;57.918;12.530;2023-03-01T06:50:50;2.67;;;2.13;;
13425;SDS011;6785;57.918;12.530;2023-03-01T06:53:17;3.40;;;2.50;;
13425;SDS011;6785;57.918;12.530;2023-03-01T06:55:43;2.23;;;2.00;;
13425;SDS011;6785;57.918;12.530;2023-03-01T06:58:11;3.23;;;1.97;;
13425;SDS011;6785;57.918;12.530;2023-03-01T07:00:38;4.47;;;2.03;;
13425;SDS011;6785;57.918;12.530;2023-03-01T07:03:05;2.53;;;2.20;;
13425;SDS011;6785;57.918;12.530;2023-03-01T07:05:32;3.47;;;1.83;;
13425;SDS011;6785;57.918;12.530;2023-03-01T07:07:59;4.80;;;1.90;;
13425;SDS011;6785;57.918;12.530;2023-03-01T07:10:26;6.17;;;4.27;;
13425;SDS011;6785;57.918;12.530;2023-03-01T07:12:54;10.73;;;6.60;;
13425;SDS011;6785;57.918;12.530;2023-03-01T07:15:22;15.97;;;9.03;;
13425;SDS011;6785;57.918;12.530;2023-03-01T07:17:50;14.17;;;8.63;;
13425;SDS011;6785;57.918;12.530;2023-03-01T07:20:17;6.70;;;3.67;;
13425;SDS011;6785;57.918;12.530;2023-03-01T07:22:47;3.30;;;2.03;;
13425;SDS011;6785;57.918;12.530;2023-03-01T07:25:14;1.67;;;1.57;;
13425;SDS011;6785;57.918;12.530;2023-03-01T07:27:40;4.67;;;1.77;;
13425;SDS011;6785;57.918;12.530;2023-03-01T07:30:08;2.30;;;1.60;;
13425;SDS011;6785;57.918;12.530;2023-03-01T07:32:36;2.30;;;1.67;;
13425;SDS011;6785;57.918;12.530;2023-03-01T07:35:03;2.00;;;1.53;;
13425;SDS011;6785;57.918;12.530;2023-03-01T07:37:31;1.63;;;1.53;;
13425;SDS011;6785;57.918;12.530;2023-03-01T07:39:57;2.00;;;1.37;;
13425;SDS011;6785;57.918;12.530;2023-03-01T07:42:24;2.60;;;1.50;;
13425;SDS011;6785;57.918;12.530;2023-03-01T07:44:51;3.17;;;1.50;;
13425;SDS011;6785;57.918;12.530;2023-03-01T07:47:17;6.17;;;1.87;;
13425;SDS011;6785;57.918;12.530;2023-03-01T07:49:45;2.10;;;1.50;;
13425;SDS011;6785;57.918;12.530;2023-03-01T07:52:12;1.77;;;1.50;;
13425;SDS011;6785;57.918;12.530;2023-03-01T07:54:41;3.40;;;1.50;;
13425;SDS011;6785;57.918;12.530;2023-03-01T07:57:09;2.63;;;1.30;;
13425;SDS011;6785;57.918;12.530;2023-03-01T07:59:36;1.40;;;1.30;;
13425;SDS011;6785;57.918;12.530;2023-03-01T08:02:02;2.00;;;1.40;;
13425;SDS011;6785;57.918;12.530;2023-03-01T08:04:29;1.60;;;1.40;;
13425;SDS011;6785;57.918;12.530;2023-03-01T08:06:57;2.47;;;1.50;;
13425;SDS011;6785;57.918;12.530;2023-03-01T08:09:24;1.53;;;1.37;;
13425;SDS011;6785;57.918;12.530;2023-03-01T08:11:51;5.27;;;2.03;;
13425;SDS011;6785;57.918;12.530;2023-03-01T08:14:19;1.67;;;1.40;;
13425;SDS011;6785;57.918;12.530;2023-03-01T08:16:48;4.10;;;1.53;;
13425;SDS011;6785;57.918;12.530;2023-03-01T08:19:15;3.73;;;1.40;;
13425;SDS011;6785;57.918;12.530;2023-03-01T08:21:42;4.90;;;1.27;;
13425;SDS011;6785;57.918;12.530;2023-03-01T08:24:10;1.37;;;1.20;;
13425;SDS011;6785;57.918;12.530;2023-03-01T08:26:37;1.90;;;1.40;;
13425;SDS011;6785;57.918;12.530;2023-03-01T08:29:04;3.27;;;1.30;;
13425;SDS011;6785;57.918;12.530;2023-03-01T08:31:32;2.73;;;1.30;;
13425;SDS011;6785;57.918;12.530;2023-03-01T08:34:02;1.50;;;1.37;;
13425;SDS011;6785;57.918;12.530;2023-03-01T08:36:30;2.03;;;1.63;;
13425;SDS011;6785;57.918;12.530;2023-03-01T08:38:58;3.47;;;1.40;;
13425;SDS011;6785;57.918;12.530;2023-03-01T08:41:27;2.20;;;1.63;;
13425;SDS011;6785;57.918;12.530;2023-03-01T08:43:54;2.57;;;1.87;;
13425;SDS011;6785;57.918;12.530;2023-03-01T08:46:23;2.67;;;1.70;;
13425;SDS011;6785;57.918;12.530;2023-03-01T08:48:51;1.40;;;1.30;;
13425;SDS011;6785;57.918;12.530;2023-03-01T08:51:18;3.07;;;1.43;;
13425;SDS011;6785;57.918;12.530;2023-03-01T08:53:46;1.57;;;1.40;;
13425;SDS011;6785;57.918;12.530;2023-03-01T08:56:13;2.93;;;1.50;;
13425;SDS011;6785;57.918;12.530;2023-03-01T08:58:43;3.93;;;1.80;;
13425;SDS011;6785;57.918;12.530;2023-03-01T09:01:10;1.43;;;1.33;;
13425;SDS011;6785;57.918;12.530;2023-03-01T09:03:38;1.83;;;1.50;;
13425;SDS011;6785;57.918;12.530;2023-03-01T09:06:06;2.67;;;1.50;;
13425;SDS011;6785;57.918;12.530;2023-03-01T09:08:34;1.47;;;1.30;;
13425;SDS011;6785;57.918;12.530;2023-03-01T09:11:01;2.07;;;1.67;;
13425;SDS011;6785;57.918;12.530;2023-03-01T09:13:28;3.67;;;1.50;;
13425;SDS011;6785;57.918;12.530;2023-03-01T09:15:57;1.30;;;1.20;;
13425;SDS011;6785;57.918;12.530;2023-03-01T09:18:24;1.47;;;1.33;;
13425;SDS011;6785;57.918;12.530;2023-03-01T09:20:51;3.93;;;1.50;;
13425;SDS011;6785;57.918;12.530;2023-03-01T09:23:19;1.83;;;1.40;;
13425;SDS011;6785;57.918;12.530;2023-03-01T09:25:46;2.33;;;1.50;;
13425;SDS011;6785;57.918;12.530;2023-03-01T09:28:13;3.83;;;1.33;;
13425;SDS011;6785;57.918;12.530;2023-03-01T09:30:39;1.37;;;1.27;;
13425;SDS011;6785;57.918;12.530;2023-03-01T09:33:08;1.53;;;1.43;;
13425;SDS011;6785;57.918;12.530;2023-03-01T09:35:39;2.00;;;1.37;;
13425;SDS011;6785;57.918;12.530;2023-03-01T09:38:11;2.50;;;1.33;;
13425;SDS011;6785;57.918;12.530;2023-03-01T09:40:41;2.63;;;1.30;;
13425;SDS011;6785;57.918;12.530;2023-03-01T09:43:13;4.33;;;1.50;;
13425;SDS011;6785;57.918;12.530;2023-03-01T09:45:44;2.40;;;1.30;;
13425;SDS011;6785;57.918;12.530;2023-03-01T09:48:15;3.17;;;1.73;;
13425;SDS011;6785;57.918;12.530;2023-03-01T09:50:46;4.80;;;2.10;;
13425;SDS011;6785;57.918;12.530;2023-03-01T09:53:15;1.73;;;1.57;;
13425;SDS011;6785;57.918;12.530;2023-03-01T09:55:43;1.43;;;1.13;;
13425;SDS011;6785;57.918;12.530;2023-03-01T09:58:23;1.80;;;1.40;;
13425;SDS011;6785;57.918;12.530;2023-03-01T10:01:02;5.60;;;1.60;;
13425;SDS011;6785;57.918;12.530;2023-03-01T10:03:39;4.00;;;1.23;;
13425;SDS011;6785;57.918;12.530;2023-03-01T10:06:10;2.63;;;1.60;;
13425;SDS011;6785;57.918;12.530;2023-03-01T10:08:40;1.93;;;1.30;;
13425;SDS011;6785;57.918;12.530;2023-03-01T10:11:17;2.77;;;1.10;;
13425;SDS011;6785;57.918;12.530;2023-03-01T10:13:48;3.00;;;1.20;;
13425;SDS011;6785;57.918;12.530;2023-03-01T10:16:21;0.90;;;0.90;;
13425;SDS011;6785;57.918;12.530;2023-03-01T10:18:53;2.57;;;1.60;;
13425;SDS011;6785;57.918;12.530;2023-03-01T10:21:25;3.33;;;1.60;;
13425;SDS011;6785;57.918;12.530;2023-03-01T10:23:53;0.97;;;0.97;;
13425;SDS011;6785;57.918;12.530;2023-03-01T10:26:27;3.47;;;1.33;;
13425;SDS011;6785;57.918;12.530;2023-03-01T10:29:05;3.70;;;0.80;;
13425;SDS011;6785;57.918;12.530;2023-03-01T10:31:37;2.57;;;1.57;;
13425;SDS011;6785;57.918;12.530;2023-03-01T10:34:12;6.57;;;1.20;;
13425;SDS011;6785;57.918;12.530;2023-03-01T10:36:41;4.63;;;1.07;;
13425;SDS011;6785;57.918;12.530;2023-03-01T10:39:13;6.60;;;1.03;;
13425;SDS011;6785;57.918;12.530;2023-03-01T10:41:52;3.03;;;1.07;;
13425;SDS011;6785;57.918;12.530;2023-03-01T10:44:40;0.80;;;0.80;;
13425;SDS011;6785;57.918;12.530;2023-03-01T10:47:13;2.90;;;0.90;;
13425;SDS011;6785;57.918;12.530;2023-03-01T10:49:53;1.33;;;0.80;;
13425;SDS011;6785;57.918;12.530;2023-03-01T10:52:26;0.80;;;0.80;;
13425;SDS011;6785;57.918;12.530;2023-03-01T10:54:55;4.10;;;1.00;;
13425;SDS011;6785;57.918;12.530;2023-03-01T10:57:28;2.07;;;0.70;;
13425;SDS011;6785;57.918;12.530;2023-03-01T11:00:19;3.30;;;0.80;;
13425;SDS011;6785;57.918;12.530;2023-03-01T11:02:51;3.43;;;1.17;;
13425;SDS011;6785;57.918;12.530;2023-03-01T11:05:30;1.27;;;0.83;;
13425;SDS011;6785;57.918;12.530;2023-03-01T11:07:59;1.57;;;1.03;;
13425;SDS011;6785;57.918;12.530;2023-03-01T11:10:28;0.90;;;0.90;;
13425;SDS011;6785;57.918;12.530;2023-03-01T11:13:05;1.07;;;0.97;;
13425;SDS011;6785;57.918;12.530;2023-03-01T11:15:34;4.93;;;0.80;;
13425;SDS011;6785;57.918;12.530;2023-03-01T11:18:01;1.20;;;0.97;;
13425;SDS011;6785;57.918;12.530;2023-03-01T11:20:31;3.03;;;0.93;;
13425;SDS011;6785;57.918;12.530;2023-03-01T11:23:01;5.70;;;1.13;;
13425;SDS011;6785;57.918;12.530;2023-03-01T11:25:33;2.07;;;1.10;;
13425;SDS011;6785;57.918;12.530;2023-03-01T11:28:03;6.60;;;1.40;;
13425;SDS011;6785;57.918;12.530;2023-03-01T11:30:33;1.30;;;1.00;;
13425;SDS011;6785;57.918;12.530;2023-03-01T11:33:08;2.93;;;1.03;;
13425;SDS011;6785;57.918;12.530;2023-03-01T11:35:44;1.43;;;1.10;;
13425;SDS011;6785;57.918;12.530;2023-03-01T11:38:16;0.93;;;0.93;;
13425;SDS011;6785;57.918;12.530;2023-03-01T11:40:49;1.97;;;1.03;;
13425;SDS011;6785;57.918;12.530;2023-03-01T11:43:20;2.80;;;1.33;;
13425;SDS011;6785;57.918;12.530;2023-03-01T11:45:59;2.73;;;1.20;;
13425;SDS011;6785;57.918;12.530;2023-03-01T11:48:44;2.13;;;1.03;;
13425;SDS011;6785;57.918;12.530;2023-03-01T11:51:22;2.07;;;0.93;;
13425;SDS011;6785;57.918;12.530;2023-03-01T11:54:00;0.73;;;0.73;;
13425;SDS011;6785;57.918;12.530;2023-03-01T11:56:35;2.60;;;1.33;;
13425;SDS011;6785;57.918;12.530;2023-03-01T11:59:19;3.10;;;0.90;;
13425;SDS011;6785;57.918;12.530;2023-03-01T12:08:00;2.10;;;1.10;;
13425;SDS011;6785;57.918;12.530;2023-03-01T12:10:34;1.67;;;1.20;;
13425;SDS011;6785;57.918;12.530;2023-03-01T12:13:13;1.73;;;1.00;;
13425;SDS011;6785;57.918;12.530;2023-03-01T12:15:56;1.60;;;1.10;;
13425;SDS011;6785;57.918;12.530;2023-03-01T12:21:51;1.23;;;1.10;;
13425;SDS011;6785;57.918;12.530;2023-03-01T12:24:28;1.93;;;1.10;;
13425;SDS011;6785;57.918;12.530;2023-03-01T12:27:24;1.40;;;1.10;;
13425;SDS011;6785;57.918;12.530;2023-03-01T12:30:05;0.80;;;0.60;;
13425;SDS011;6785;57.918;12.530;2023-03-01T12:32:51;1.10;;;1.00;;
13425;SDS011;6785;57.918;12.530;2023-03-01T12:38:24;4.20;;;1.37;;
13425;SDS011;6785;57.918;12.530;2023-03-01T12:41:10;1.50;;;1.10;;
13425;SDS011;6785;57.918;12.530;2023-03-01T12:44:06;0.77;;;0.67;;
13425;SDS011;6785;57.918;12.530;2023-03-01T12:46:42;2.20;;;0.80;;
13425;SDS011;6785;57.918;12.530;2023-03-01T12:49:19;0.70;;;0.70;;
13425;SDS011;6785;57.918;12.530;2023-03-01T12:51:50;1.90;;;0.70;;
13425;SDS011;6785;57.918;12.530;2023-03-01T12:54:23;0.80;;;0.80;;
13425;SDS011;6785;57.918;12.530;2023-03-01T12:56:54;0.70;;;0.70;;
13425;SDS011;6785;57.918;12.530;2023-03-01T12:59:23;2.00;;;0.80;;
13425;SDS011;6785;57.918;12.530;2023-03-01T13:02:02;1.17;;;0.83;;
13425;SDS011;6785;57.918;12.530;2023-03-01T13:04:37;3.20;;;1.00;;
13425;SDS011;6785;57.918;12.530;2023-03-01T13:07:27;1.57;;;0.77;;
13425;SDS011;6785;57.918;12.530;2023-03-01T13:10:00;0.60;;;0.60;;
13425;SDS011;6785;57.918;12.530;2023-03-01T13:12:43;1.20;;;0.70;;
13425;SDS011;6785;57.918;12.530;2023-03-01T13:15:27;0.90;;;0.70;;
13425;SDS011;6785;57.918;12.530;2023-03-01T13:18:04;2.40;;;0.90;;
13425;SDS011;6785;57.918;12.530;2023-03-01T13:20:55;1.90;;;0.87;;
13425;SDS011;6785;57.918;12.530;2023-03-01T13:23:24;1.23;;;0.73;;
13425;SDS011;6785;57.918;12.530;2023-03-01T13:26:03;0.83;;;0.70;;
13425;SDS011;6785;57.918;12.530;2023-03-01T13:34:45;0.90;;;0.80;;
13425;SDS011;6785;57.918;12.530;2023-03-01T13:37:29;1.90;;;0.50;;
13425;SDS011;6785;57.918;12.530;2023-03-01T13:40:03;0.80;;;0.60;;
13425;SDS011;6785;57.918;12.530;2023-03-01T13:42:52;1.33;;;0.77;;
13425;SDS011;6785;57.918;12.530;2023-03-01T13:45:22;1.13;;;0.80;;
13425;SDS011;6785;57.918;12.530;2023-03-01T13:47:58;0.83;;;0.70;;
13425;SDS011;6785;57.918;12.530;2023-03-01T13:50:28;0.50;;;0.50;;
13425;SDS011;6785;57.918;12.530;2023-03-01T13:52:59;0.90;;;0.80;;
13425;SDS011;6785;57.918;12.530;2023-03-01T13:55:32;3.13;;;1.20;;
13425;SDS011;6785;57.918;12.530;2023-03-01T13:58:04;1.93;;;1.07;;
13425;SDS011;6785;57.918;12.530;2023-03-01T14:00:43;2.37;;;0.63;;
13425;SDS011;6785;57.918;12.530;2023-03-01T14:03:11;2.70;;;1.50;;
13425;SDS011;6785;57.918;12.530;2023-03-01T14:05:40;4.07;;;0.80;;
13425;SDS011;6785;57.918;12.530;2023-03-01T14:08:18;0.63;;;0.63;;
13425;SDS011;6785;57.918;12.530;2023-03-01T14:10:53;2.87;;;1.03;;
13425;SDS011;6785;57.918;12.530;2023-03-01T14:13:42;0.60;;;0.60;;
13425;SDS011;6785;57.918;12.530;2023-03-01T14:16:22;1.27;;;0.70;;
13425;SDS011;6785;57.918;12.530;2023-03-01T14:18:59;0.70;;;0.50;;
13425;SDS011;6785;57.918;12.530;2023-03-01T14:21:35;1.80;;;1.23;;
13425;SDS011;6785;57.918;12.530;2023-03-01T14:24:03;2.90;;;1.60;;
13425;SDS011;6785;57.918;12.530;2023-03-01T14:26:30;2.13;;;1.20;;
13425;SDS011;6785;57.918;12.530;2023-03-01T14:28:58;2.57;;;1.67;;
13425;SDS011;6785;57.918;12.530;2023-03-01T14:31:34;1.67;;;1.40;;
13425;SDS011;6785;57.918;12.530;2023-03-01T14:34:03;1.50;;;1.00;;
13425;SDS011;6785;57.918;12.530;2023-03-01T14:36:31;1.50;;;1.40;;
13425;SDS011;6785;57.918;12.530;2023-03-01T14:38:59;0.60;;;0.60;;
13425;SDS011;6785;57.918;12.530;2023-03-01T14:41:30;3.83;;;0.93;;
13425;SDS011;6785;57.918;12.530;2023-03-01T14:44:00;1.63;;;0.53;;
13425;SDS011;6785;57.918;12.530;2023-03-01T14:46:28;0.40;;;0.40;;
13425;SDS011;6785;57.918;12.530;2023-03-01T14:49:01;0.67;;;0.67;;
13425;SDS011;6785;57.918;12.530;2023-03-01T14:51:29;2.63;;;0.67;;
13425;SDS011;6785;57.918;12.530;2023-03-01T14:53:56;1.23;;;0.50;;
13425;SDS011;6785;57.918;12.530;2023-03-01T14:56:23;1.13;;;0.60;;
13425;SDS011;6785;57.918;12.530;2023-03-01T14:58:58;0.33;;;0.30;;
13425;SDS011;6785;57.918;12.530;2023-03-01T15:01:25;1.73;;;1.10;;
13425;SDS011;6785;57.918;12.530;2023-03-01T15:03:54;4.17;;;0.80;;
13425;SDS011;6785;57.918;12.530;2023-03-01T15:06:22;3.37;;;1.40;;
13425;SDS011;6785;57.918;12.530;2023-03-01T15:08:50;4.23;;;2.20;;
13425;SDS011;6785;57.918;12.530;2023-03-01T15:11:20;2.97;;;1.40;;
13425;SDS011;6785;57.918;12.530;2023-03-01T15:13:49;3.93;;;1.53;;
13425;SDS011;6785;57.918;12.530;2023-03-01T15:16:16;1.00;;;0.90;;
13425;SDS011;6785;57.918;12.530;2023-03-01T15:18:46;2.37;;;0.63;;
13425;SDS011;6785;57.918;12.530;2023-03-01T15:21:15;6.70;;;0.90;;
13425;SDS011;6785;57.918;12.530;2023-03-01T15:23:49;1.83;;;1.03;;
13425;SDS011;6785;57.918;12.530;2023-03-01T15:26:25;9.53;;;1.00;;